Terminal Aerodrome Forecast
Issued by NWS Cleveland, OH

Home | Current Version | Previous Version | Text Only | Print | Product List | Glossary On
Versions: 1 2 3 4 5 6 7 8 9 10 11 12 13 14 15
767
FTUS41 KCLE 271720
TAFYNG
TAF
KYNG 271720Z 2718/2818 19008KT P6SM OVC045
     FM281500 18010KT 5SM -SHRA OVC025 PROB30 2815/2818 4SM -SHRA BR
      OVC010=

USA.gov is the U.S. government's official web portal to all federal, state and local government web resources and services.